Time;durP1;ratioP1;P1;durP2;ratioP2;P2;SDS_P1;SDS_P2;PMS_P1;PMS_P2;Temp;Humidity;BMP_temperature;BMP_pressure;BME280_temperature;BME280_humidity;BME280_pressure;Samples;Min_cycle;Max_cycle;Signal;HPM_P1;HPM_P2
2022/06/27 00:00:20;;;;;;;2.80;1.87;;;19.80;92.10;;;;;;4992704;28;20778;-67
2022/06/27 00:02:47;;;;;;;2.60;1.77;;;19.80;91.90;;;;;;4992109;28;20447;-68
2022/06/27 00:05:16;;;;;;;3.07;2.20;;;19.80;91.90;;;;;;4992793;28;20800;-67
2022/06/27 00:07:44;;;;;;;3.30;1.97;;;19.80;91.80;;;;;;4991822;28;20455;-67
2022/06/27 00:10:11;;;;;;;5.67;2.03;;;19.80;91.60;;;;;;4992562;28;20451;-67
2022/06/27 00:12:39;;;;;;;4.70;2.03;;;19.90;91.60;;;;;;4992115;28;20443;-67
2022/06/27 00:15:09;;;;;;;2.80;1.70;;;19.80;91.50;;;;;;4992330;28;20444;-67
2022/06/27 00:17:37;;;;;;;2.70;1.70;;;19.70;91.60;;;;;;4991689;28;21006;-67
2022/06/27 00:20:05;;;;;;;4.17;2.17;;;19.70;91.70;;;;;;4991336;28;20451;-67
2022/06/27 00:22:34;;;;;;;3.73;2.50;;;19.70;91.60;;;;;;4992186;28;20444;-67
2022/06/27 00:25:01;;;;;;;4.33;2.23;;;19.70;92.00;;;;;;4994245;28;20443;-67
2022/06/27 00:27:28;;;;;;;3.83;2.50;;;19.70;92.30;;;;;;4995855;28;20435;-67
2022/06/27 00:29:55;;;;;;;2.80;1.90;;;19.70;92.30;;;;;;4995542;28;20819;-67
2022/06/27 00:32:23;;;;;;;2.70;2.37;;;19.70;92.60;;;;;;4995648;28;20439;-67
2022/06/27 00:34:50;;;;;;;2.70;1.90;;;19.70;92.80;;;;;;4976756;28;20449;-68
2022/06/27 00:37:17;;;;;;;5.37;2.30;;;19.70;92.80;;;;;;4976703;28;20507;-69
2022/06/27 00:39:46;;;;;;;4.40;2.30;;;19.60;92.80;;;;;;4976594;28;20448;-67
2022/06/27 00:42:13;;;;;;;3.40;2.43;;;19.60;92.70;;;;;;4987587;28;20803;-67
2022/06/27 00:44:42;;;;;;;2.80;1.90;;;19.50;92.80;;;;;;4995698;28;21294;-67
2022/06/27 00:47:12;;;;;;;3.30;2.30;;;19.50;92.60;;;;;;4994327;28;20444;-67
2022/06/27 00:49:39;;;;;;;3.30;1.90;;;19.50;92.60;;;;;;4994643;28;20451;-67
2022/06/27 00:52:09;;;;;;;3.07;2.13;;;19.50;92.80;;;;;;4995494;28;20781;-67
2022/06/27 00:54:38;;;;;;;4.17;2.40;;;19.40;92.90;;;;;;4995702;28;20443;-67
2022/06/27 00:57:08;;;;;;;2.63;1.87;;;19.30;92.90;;;;;;4994430;28;20475;-68
2022/06/27 00:59:36;;;;;;;2.40;2.00;;;19.30;93.20;;;;;;4989622;28;20444;-67
2022/06/27 01:02:04;;;;;;;3.57;2.07;;;19.30;93.20;;;;;;4993055;28;20444;-67
2022/06/27 01:04:31;;;;;;;2.70;1.93;;;19.30;93.20;;;;;;4995154;28;20432;-67
2022/06/27 01:06:59;;;;;;;5.13;2.07;;;19.30;93.20;;;;;;4992937;28;20444;-67
2022/06/27 01:09:26;;;;;;;2.60;2.03;;;19.30;93.20;;;;;;4995442;28;20444;-68
2022/06/27 01:11:53;;;;;;;2.83;1.90;;;19.40;93.30;;;;;;4995486;28;20443;-68
2022/06/27 01:14:23;;;;;;;4.20;2.20;;;19.40;93.40;;;;;;4994841;28;20439;-67
2022/06/27 01:16:51;;;;;;;2.60;1.83;;;19.30;93.30;;;;;;4995298;28;20546;-67
2022/06/27 01:19:19;;;;;;;3.90;2.20;;;19.10;93.20;;;;;;4994862;28;20945;-68
2022/06/27 01:21:50;;;;;;;5.40;1.73;;;19.00;93.10;;;;;;4995095;28;20506;-67
2022/06/27 01:24:21;;;;;;;2.43;1.70;;;18.90;93.00;;;;;;4994787;28;20447;-67
2022/06/27 01:26:48;;;;;;;3.27;2.30;;;18.90;93.10;;;;;;4995160;28;20440;-67
2022/06/27 01:29:16;;;;;;;3.30;2.53;;;18.90;93.10;;;;;;4994534;28;20478;-67
2022/06/27 01:31:44;;;;;;;4.13;2.27;;;18.90;93.20;;;;;;4994960;28;20454;-67
2022/06/27 01:34:13;;;;;;;3.10;2.30;;;18.90;93.20;;;;;;4994559;28;20796;-67
2022/06/27 01:36:44;;;;;;;3.40;2.60;;;18.90;93.20;;;;;;4994530;28;20523;-67
2022/06/27 01:39:13;;;;;;;3.40;2.23;;;18.90;93.70;;;;;;4994311;28;20443;-67
2022/06/27 01:41:44;;;;;;;4.20;2.50;;;18.90;93.60;;;;;;4994188;28;20440;-67
2022/06/27 01:44:11;;;;;;;2.63;2.20;;;18.90;93.60;;;;;;4975147;28;20444;-67
2022/06/27 01:46:43;;;;;;;4.43;2.47;;;18.90;93.70;;;;;;4978012;28;20467;-69
2022/06/27 01:49:12;;;;;;;5.10;2.23;;;18.90;93.60;;;;;;4994529;28;20522;-68
2022/06/27 01:51:40;;;;;;;3.33;2.53;;;19.00;93.70;;;;;;4994342;28;20444;-68
2022/06/27 01:54:09;;;;;;;3.80;2.20;;;19.00;93.70;;;;;;4994625;28;20452;-68
2022/06/27 01:56:36;;;;;;;3.00;2.40;;;19.00;93.80;;;;;;4993675;28;20502;-67
2022/06/27 01:59:06;;;;;;;3.97;2.10;;;19.00;94.10;;;;;;4994736;28;20520;-67
2022/06/27 02:01:33;;;;;;;3.60;2.17;;;18.90;94.20;;;;;;4993334;28;20448;-67
2022/06/27 02:04:00;;;;;;;4.00;2.40;;;18.90;94.20;;;;;;4993794;28;20873;-67
2022/06/27 02:06:29;;;;;;;4.80;3.10;;;18.90;94.20;;;;;;4994062;28;20439;-67
2022/06/27 02:08:58;;;;;;;3.20;2.30;;;19.00;94.30;;;;;;4994335;28;20439;-68
2022/06/27 02:11:26;;;;;;;4.03;1.97;;;18.90;94.20;;;;;;4993521;28;20440;-67
2022/06/27 02:13:55;;;;;;;2.87;2.27;;;18.90;94.30;;;;;;4994238;28;20864;-67
2022/06/27 02:16:27;;;;;;;3.93;2.40;;;18.90;94.30;;;;;;4993611;28;20528;-67
2022/06/27 02:18:55;;;;;;;2.80;1.90;;;18.90;94.30;;;;;;4990345;28;20494;-69
2022/06/27 02:21:24;;;;;;;2.70;2.13;;;18.90;94.40;;;;;;4993974;28;20446;-68
2022/06/27 02:23:53;;;;;;;4.40;2.70;;;18.90;94.50;;;;;;4994011;28;20447;-68
2022/06/27 02:26:24;;;;;;;10.20;2.77;;;18.90;94.70;;;;;;4993769;28;20778;-67
2022/06/27 02:28:53;;;;;;;2.80;2.00;;;18.90;95.00;;;;;;4993098;28;20475;-68
2022/06/27 02:31:21;;;;;;;2.77;2.00;;;18.90;95.10;;;;;;4993400;28;20432;-67
2022/06/27 02:33:51;;;;;;;4.93;2.80;;;18.80;95.10;;;;;;4993602;28;20444;-67
2022/06/27 02:36:24;;;;;;;3.40;2.67;;;18.80;95.20;;;;;;4993800;28;20479;-67
2022/06/27 02:38:53;;;;;;;2.97;2.30;;;18.70;95.10;;;;;;4993338;28;20526;-67
2022/06/27 02:41:23;;;;;;;3.60;2.50;;;18.70;95.10;;;;;;4993749;28;20444;-67
2022/06/27 02:43:54;;;;;;;5.23;2.50;;;18.70;95.00;;;;;;4993106;28;20510;-67
2022/06/27 02:46:22;;;;;;;4.10;2.67;;;18.60;95.10;;;;;;4993478;28;20960;-67
2022/06/27 02:48:51;;;;;;;4.33;2.33;;;18.60;95.20;;;;;;4992878;28;20526;-67
2022/06/27 02:51:22;;;;;;;5.90;2.73;;;18.60;95.40;;;;;;4993731;28;20531;-67
2022/06/27 02:54:02;;;;;;;4.30;2.03;;;18.60;95.60;;;;;;4993129;28;20439;-67
2022/06/27 02:56:31;;;;;;;4.13;2.70;;;18.60;95.70;;;;;;4993508;28;20910;-67
2022/06/27 02:59:14;;;;;;;6.87;3.00;;;18.60;95.60;;;;;;4992858;28;20519;-68
2022/06/27 03:01:43;;;;;;;5.10;3.00;;;18.60;95.60;;;;;;4993105;28;20951;-67
2022/06/27 03:04:12;;;;;;;5.20;2.40;;;18.60;95.50;;;;;;4992500;28;20518;-67
2022/06/27 03:06:39;;;;;;;5.97;2.73;;;18.60;95.40;;;;;;4993347;28;20451;-67
2022/06/27 03:09:07;;;;;;;5.70;2.60;;;18.60;95.60;;;;;;4992769;28;20838;-68
2022/06/27 03:11:35;;;;;;;9.53;2.63;;;18.70;95.60;;;;;;4993166;28;20454;-67
2022/06/27 03:14:02;;;;;;;7.97;2.70;;;18.70;95.70;;;;;;4992443;28;20431;-67
2022/06/27 03:16:30;;;;;;;4.90;2.63;;;18.80;95.70;;;;;;4993258;28;20444;-67
2022/06/27 03:18:57;;;;;;;3.43;2.20;;;18.80;95.90;;;;;;4992597;28;20486;-67
2022/06/27 03:21:26;;;;;;;3.87;2.37;;;18.90;96.00;;;;;;4992277;28;20440;-68
2022/06/27 03:23:53;;;;;;;3.33;2.30;;;18.90;95.90;;;;;;4993123;28;20448;-68
2022/06/27 03:26:20;;;;;;;3.70;2.33;;;19.00;95.80;;;;;;4992910;28;20439;-67
2022/06/27 03:28:48;;;;;;;4.30;2.30;;;19.00;95.80;;;;;;4993074;28;20530;-67
2022/06/27 03:31:16;;;;;;;3.63;2.33;;;19.10;96.20;;;;;;4992312;28;20448;-69
2022/06/27 03:33:43;;;;;;;4.10;2.70;;;19.10;95.60;;;;;;4992921;28;20480;-67
2022/06/27 03:36:11;;;;;;;4.37;1.90;;;19.20;95.40;;;;;;4992324;28;20510;-67
2022/06/27 03:38:40;;;;;;;2.90;2.30;;;19.20;95.30;;;;;;4992972;28;20490;-67
2022/06/27 03:41:07;;;;;;;3.20;2.50;;;19.30;95.30;;;;;;4992541;28;20502;-67
2022/06/27 03:43:34;;;;;;;5.97;3.03;;;19.30;95.10;;;;;;4992690;28;20470;-67
2022/06/27 03:46:02;;;;;;;3.50;2.00;;;19.40;95.10;;;;;;4992292;28;20452;-68
2022/06/27 03:51:13;;;;;;;6.33;2.17;;;19.40;94.90;;;;;;4992622;28;20443;-68
2022/06/27 03:53:42;;;;;;;3.17;2.20;;;19.40;94.70;;;;;;4992814;28;20798;-67
2022/06/27 03:56:09;;;;;;;2.87;2.00;;;19.30;94.70;;;;;;4992351;28;20454;-67
2022/06/27 03:58:36;;;;;;;3.07;1.90;;;19.30;94.70;;;;;;4993710;28;20483;-67
2022/06/27 04:01:04;;;;;;;7.87;2.53;;;19.40;94.70;;;;;;4996153;28;20502;-67
2022/06/27 04:03:32;;;;;;;2.93;2.23;;;19.40;94.60;;;;;;4996784;28;20597;-68
2022/06/27 04:05:59;;;;;;;4.27;2.43;;;19.40;94.70;;;;;;4996579;28;20528;-67
2022/06/27 04:08:27;;;;;;;3.60;3.00;;;19.40;94.70;;;;;;4996826;28;20435;-67
2022/06/27 04:10:56;;;;;;;6.77;2.93;;;19.40;94.60;;;;;;4996444;28;20934;-68
2022/06/27 04:13:23;;;;;;;3.47;2.50;;;19.40;94.60;;;;;;4997048;28;20461;-68
2022/06/27 04:15:51;;;;;;;3.50;2.97;;;19.40;94.30;;;;;;4996238;28;20431;-67
2022/06/27 04:18:18;;;;;;;3.67;2.53;;;19.40;94.50;;;;;;4996751;28;20491;-67
2022/06/27 04:20:45;;;;;;;3.87;2.43;;;19.40;94.70;;;;;;4996400;28;20436;-67
2022/06/27 04:23:13;;;;;;;2.80;2.33;;;19.40;94.70;;;;;;4996399;28;20494;-67
2022/06/27 04:25:42;;;;;;;2.57;2.20;;;19.50;94.80;;;;;;4995882;28;21001;-67
2022/06/27 04:28:11;;;;;;;5.70;2.67;;;19.60;94.80;;;;;;4993038;28;20447;-67
2022/06/27 04:30:39;;;;;;;5.20;2.10;;;19.60;94.70;;;;;;4993774;28;20465;-67
2022/06/27 04:33:12;;;;;;;3.87;2.10;;;19.70;94.80;;;;;;4994416;28;20439;-68
2022/06/27 04:35:41;;;;;;;4.27;2.27;;;19.70;94.70;;;;;;4994602;28;20527;-67
2022/06/27 04:38:08;;;;;;;5.03;2.30;;;19.80;94.80;;;;;;4994561;28;21017;-70
2022/06/27 04:40:37;;;;;;;2.70;1.80;;;19.80;94.90;;;;;;4976382;28;20535;-68
2022/06/27 04:43:04;;;;;;;3.77;2.20;;;19.90;94.80;;;;;;4994616;28;20522;-67
2022/06/27 04:45:34;;;;;;;4.20;2.70;;;20.00;94.80;;;;;;4993627;28;20443;-68
2022/06/27 04:48:03;;;;;;;5.37;2.77;;;20.00;94.60;;;;;;4994567;28;20440;-67
2022/06/27 04:50:30;;;;;;;9.00;2.43;;;20.00;95.10;;;;;;4989945;28;20448;-67
2022/06/27 04:53:00;;;;;;;6.90;2.40;;;20.00;95.40;;;;;;4994195;28;20440;-68
2022/06/27 04:55:28;;;;;;;4.50;3.00;;;20.10;95.50;;;;;;4993264;28;20997;-68
2022/06/27 04:57:56;;;;;;;5.00;2.63;;;20.10;96.00;;;;;;4993894;28;20831;-67
2022/06/27 05:00:24;;;;;;;5.90;2.43;;;20.20;96.20;;;;;;4993626;28;20436;-68
2022/06/27 05:02:53;;;;;;;4.60;2.90;;;20.30;96.10;;;;;;4994351;28;20489;-68
2022/06/27 05:05:21;;;;;;;4.67;2.70;;;20.40;96.10;;;;;;4993471;28;20440;-70
2022/06/27 05:07:48;;;;;;;5.93;2.20;;;20.50;96.30;;;;;;4990203;28;20432;-68
2022/06/27 05:10:15;;;;;;;4.97;2.60;;;20.60;96.60;;;;;;4993138;28;20475;-68
2022/06/27 05:12:42;;;;;;;3.33;2.17;;;20.60;96.60;;;;;;4993609;28;20440;-68
2022/06/27 05:15:11;;;;;;;4.70;2.73;;;20.60;96.10;;;;;;4992669;28;20958;-67
2022/06/27 05:17:39;;;;;;;2.77;2.40;;;20.70;95.30;;;;;;4992726;28;20471;-68
2022/06/27 05:20:09;;;;;;;2.70;2.10;;;20.70;95.00;;;;;;4992619;28;20439;-67
2022/06/27 05:22:38;;;;;;;4.47;2.50;;;20.80;95.10;;;;;;4993864;28;20466;-69
2022/06/27 05:25:11;;;;;;;3.23;2.00;;;20.90;95.30;;;;;;4983882;28;20446;-68
2022/06/27 05:27:39;;;;;;;6.43;2.63;;;21.00;95.10;;;;;;4983504;28;20957;-71
2022/06/27 05:30:07;;;;;;;2.80;1.83;;;21.00;94.70;;;;;;4987840;28;20502;-72
2022/06/27 05:32:35;;;;;;;2.50;1.93;;;21.10;94.40;;;;;;4988839;28;20450;-72
2022/06/27 05:35:07;;;;;;;3.50;2.10;;;21.20;93.80;;;;;;4991232;28;20440;-68
2022/06/27 05:37:38;;;;;;;5.83;2.73;;;21.20;93.30;;;;;;4991306;28;20447;-68
2022/06/27 05:40:08;;;;;;;3.90;2.10;;;21.30;93.50;;;;;;4988204;28;20440;-67
2022/06/27 05:42:35;;;;;;;5.40;1.80;;;21.40;93.10;;;;;;4990324;28;20486;-68
2022/06/27 05:45:03;;;;;;;3.43;1.83;;;21.50;92.70;;;;;;4991131;28;20450;-67
2022/06/27 05:47:31;;;;;;;3.27;1.80;;;21.50;92.00;;;;;;4991646;28;20482;-68
2022/06/27 05:49:59;;;;;;;5.00;2.23;;;21.70;92.20;;;;;;4992360;28;20512;-70
2022/06/27 05:52:28;;;;;;;2.90;1.90;;;21.70;92.10;;;;;;4991663;28;20498;-70
2022/06/27 05:54:59;;;;;;;3.47;1.97;;;21.80;91.90;;;;;;4991261;28;20518;-68
2022/06/27 05:57:27;;;;;;;3.00;1.90;;;21.90;91.90;;;;;;4991768;28;20436;-67
2022/06/27 05:59:55;;;;;;;3.73;2.00;;;22.00;91.70;;;;;;4991589;28;20448;-69
2022/06/27 06:02:24;;;;;;;3.20;2.47;;;22.00;90.70;;;;;;4989880;28;20440;-70
2022/06/27 06:04:52;;;;;;;4.37;2.20;;;22.10;90.90;;;;;;4987479;28;20575;-68
2022/06/27 06:07:22;;;;;;;4.30;2.00;;;22.20;91.20;;;;;;4987112;28;20452;-69
2022/06/27 06:09:50;;;;;;;4.70;1.97;;;22.30;91.00;;;;;;4992270;28;20441;-69
2022/06/27 06:12:20;;;;;;;3.50;1.90;;;22.30;89.80;;;;;;4991492;28;20454;-68
2022/06/27 06:14:49;;;;;;;3.83;1.90;;;22.40;90.60;;;;;;4991277;28;20470;-69
2022/06/27 06:17:16;;;;;;;5.03;2.23;;;22.50;90.40;;;;;;4991783;28;20814;-67
2022/06/27 06:19:43;;;;;;;3.03;1.40;;;22.50;90.10;;;;;;4992198;28;20538;-68
2022/06/27 06:22:12;;;;;;;6.10;2.10;;;22.60;90.50;;;;;;4991557;28;20432;-68
2022/06/27 06:24:39;;;;;;;3.17;1.90;;;22.60;90.10;;;;;;4992181;28;20984;-67
2022/06/27 06:27:06;;;;;;;3.10;1.97;;;22.60;89.70;;;;;;4991408;28;20428;-68
2022/06/27 06:29:36;;;;;;;3.73;2.17;;;22.70;90.00;;;;;;4987075;28;20570;-68
2022/06/27 06:32:04;;;;;;;2.73;1.93;;;22.90;90.20;;;;;;4990136;28;20523;-68
2022/06/27 06:34:32;;;;;;;8.20;2.10;;;22.90;90.10;;;;;;4992456;28;20446;-67
2022/06/27 06:37:00;;;;;;;3.10;1.87;;;23.00;90.30;;;;;;4990870;28;20441;-68
2022/06/27 06:39:27;;;;;;;3.37;1.83;;;23.10;89.50;;;;;;4990984;28;20477;-68
2022/06/27 06:41:54;;;;;;;4.90;1.97;;;23.10;89.50;;;;;;4990651;28;20449;-67
2022/06/27 06:44:22;;;;;;;3.20;2.00;;;23.20;88.70;;;;;;4992028;28;20446;-67
2022/06/27 06:46:50;;;;;;;3.40;2.03;;;23.30;88.10;;;;;;4991576;28;20430;-68
2022/06/27 06:49:18;;;;;;;5.93;2.10;;;23.30;87.90;;;;;;4991241;28;20441;-68
2022/06/27 06:51:45;;;;;;;2.80;1.80;;;23.40;87.40;;;;;;4991737;28;20447;-68
2022/06/27 06:54:15;;;;;;;3.10;1.70;;;23.50;87.70;;;;;;4990404;28;20447;-69
2022/06/27 06:56:42;;;;;;;3.60;2.00;;;23.60;87.20;;;;;;4991555;28;20438;-68
2022/06/27 06:59:13;;;;;;;6.57;2.63;;;23.70;87.60;;;;;;4991910;28;20489;-68
2022/06/27 07:01:41;;;;;;;3.03;1.80;;;23.80;87.30;;;;;;4990469;28;20529;-68
2022/06/27 07:04:11;;;;;;;6.57;2.10;;;23.90;85.90;;;;;;4989588;28;20447;-68
2022/06/27 07:06:39;;;;;;;5.70;1.97;;;24.00;85.00;;;;;;4991941;28;20976;-68
2022/06/27 07:09:07;;;;;;;2.90;1.90;;;24.00;83.70;;;;;;4990545;28;20447;-68
2022/06/27 07:11:37;;;;;;;4.83;1.93;;;24.10;84.70;;;;;;4990942;28;20926;-68
2022/06/27 07:14:05;;;;;;;3.00;2.20;;;24.20;85.00;;;;;;4990473;28;20465;-67
2022/06/27 07:16:33;;;;;;;2.40;1.60;;;24.30;85.40;;;;;;4991738;28;20539;-67
2022/06/27 07:19:01;;;;;;;3.47;2.27;;;24.40;85.00;;;;;;4990669;28;20482;-67
2022/06/27 07:21:31;;;;;;;3.13;1.93;;;24.50;84.90;;;;;;4989470;28;20964;-67
2022/06/27 07:24:01;;;;;;;3.83;2.10;;;24.70;84.80;;;;;;4990152;28;20436;-67
2022/06/27 07:26:32;;;;;;;4.63;2.00;;;24.80;83.60;;;;;;4990960;28;20444;-69
2022/06/27 07:29:04;;;;;;;3.80;2.20;;;24.90;83.40;;;;;;4990220;28;21008;-67
2022/06/27 07:31:32;;;;;;;4.10;1.90;;;25.00;84.00;;;;;;4991356;28;20447;-68
2022/06/27 07:34:02;;;;;;;4.33;2.03;;;25.10;82.60;;;;;;4990026;28;20942;-68
2022/06/27 07:36:32;;;;;;;2.53;1.83;;;25.20;81.80;;;;;;4990698;28;20432;-68
2022/06/27 07:38:59;;;;;;;2.47;1.80;;;25.40;81.80;;;;;;4991129;28;20478;-68
2022/06/27 07:41:32;;;;;;;2.60;1.80;;;25.40;80.10;;;;;;4990721;28;20432;-69
2022/06/27 07:44:00;;;;;;;3.10;1.80;;;25.50;79.40;;;;;;4991816;28;20447;-68
2022/06/27 07:46:34;;;;;;;2.77;2.23;;;25.60;78.80;;;;;;4991704;28;20443;-68
2022/06/27 07:49:01;;;;;;;5.63;2.20;;;25.70;79.00;;;;;;4991257;28;20454;-67
2022/06/27 07:51:30;;;;;;;3.20;1.87;;;25.80;77.90;;;;;;4991194;28;20850;-67
2022/06/27 07:54:02;;;;;;;4.40;2.20;;;25.90;77.40;;;;;;4990687;28;20915;-68
2022/06/27 07:56:29;;;;;;;2.70;1.60;;;26.00;77.30;;;;;;4990871;28;20443;-68
2022/06/27 07:58:57;;;;;;;3.00;1.80;;;26.10;76.00;;;;;;4991456;28;20883;-68
2022/06/27 08:01:27;;;;;;;2.60;2.03;;;26.20;75.60;;;;;;4991187;28;20777;-69
2022/06/27 08:03:54;;;;;;;2.73;1.77;;;26.20;76.10;;;;;;4991001;28;20439;-70
2022/06/27 08:06:23;;;;;;;2.90;1.87;;;26.30;74.90;;;;;;4990494;28;20527;-69
2022/06/27 08:08:54;;;;;;;2.80;1.87;;;26.30;73.10;;;;;;4991003;28;20448;-70
2022/06/27 08:11:24;;;;;;;3.63;1.87;;;26.40;72.80;;;;;;4989435;28;20497;-69
2022/06/27 08:13:57;;;;;;;3.73;1.90;;;26.50;72.80;;;;;;4990530;28;20474;-69
2022/06/27 08:16:27;;;;;;;3.27;2.00;;;26.50;70.60;;;;;;4990871;28;20796;-70
2022/06/27 08:18:55;;;;;;;2.63;1.80;;;26.60;72.00;;;;;;4989629;28;20487;-68
2022/06/27 08:21:25;;;;;;;3.17;2.07;;;26.70;72.00;;;;;;4990638;28;20815;-67
2022/06/27 08:23:56;;;;;;;8.60;1.73;;;26.70;71.30;;;;;;4991031;28;20435;-67
2022/06/27 08:26:24;;;;;;;5.40;1.90;;;26.80;71.40;;;;;;4990293;28;20447;-68
2022/06/27 08:28:53;;;;;;;4.27;2.10;;;26.90;70.00;;;;;;4987057;28;20474;-69
2022/06/27 08:31:21;;;;;;;3.70;1.80;;;27.00;70.70;;;;;;4987180;28;20448;-68
2022/06/27 08:33:49;;;;;;;3.17;1.60;;;27.10;71.90;;;;;;4991195;28;20446;-70
2022/06/27 08:36:19;;;;;;;3.40;1.70;;;27.20;70.40;;;;;;4988147;28;20479;-68
2022/06/27 08:38:48;;;;;;;2.33;1.30;;;27.30;69.40;;;;;;4987859;28;20488;-68
2022/06/27 08:41:18;;;;;;;3.57;2.00;;;27.40;69.60;;;;;;4991450;28;20451;-67
2022/06/27 08:43:46;;;;;;;4.93;2.00;;;27.50;68.30;;;;;;4987335;28;20452;-68
2022/06/27 08:46:15;;;;;;;5.60;1.60;;;27.60;68.50;;;;;;4990810;28;20447;-68
2022/06/27 08:48:45;;;;;;;2.60;1.80;;;27.70;69.00;;;;;;4996059;28;20957;-68
2022/06/27 08:51:14;;;;;;;2.30;1.50;;;27.80;67.60;;;;;;4994837;28;20452;-67
2022/06/27 08:53:42;;;;;;;2.60;1.70;;;27.80;67.40;;;;;;4993642;28;20474;-68
2022/06/27 08:56:12;;;;;;;2.97;1.80;;;28.00;67.40;;;;;;4995728;28;20454;-68
2022/06/27 08:58:42;;;;;;;3.30;1.60;;;28.00;67.30;;;;;;4991456;28;20447;-70
2022/06/27 09:01:11;;;;;;;3.27;2.10;;;28.10;67.30;;;;;;4992152;28;20526;-67
2022/06/27 09:03:37;;;;;;;4.60;1.80;;;28.20;69.40;;;;;;4991888;28;20452;-68
2022/06/27 09:06:07;;;;;;;3.07;1.90;;;28.20;65.60;;;;;;4992165;28;20435;-68
2022/06/27 09:08:54;;;;;;;2.90;1.73;;;28.30;65.10;;;;;;4992103;28;20526;-67
2022/06/27 09:11:31;;;;;;;3.80;1.90;;;28.40;65.60;;;;;;4992252;28;20447;-67
2022/06/27 09:14:00;;;;;;;5.03;2.50;;;28.50;65.60;;;;;;4991103;28;20443;-67
2022/06/27 09:16:28;;;;;;;3.57;1.73;;;28.50;63.10;;;;;;4989679;28;20455;-74
2022/06/27 09:18:55;;;;;;;6.30;2.00;;;28.60;61.10;;;;;;4991738;28;21063;-68
2022/06/27 09:21:24;;;;;;;3.27;1.83;;;28.70;62.20;;;;;;4989981;28;20810;-68
2022/06/27 09:23:55;;;;;;;3.67;1.97;;;28.80;62.30;;;;;;4990459;28;20514;-68
2022/06/27 09:26:25;;;;;;;5.03;2.33;;;29.00;62.20;;;;;;4993806;28;20502;-68
2022/06/27 09:28:55;;;;;;;3.70;2.07;;;29.00;61.80;;;;;;4991642;28;20482;-68
2022/06/27 09:31:35;;;;;;;5.37;1.80;;;29.10;61.30;;;;;;4990642;28;20454;-68
2022/06/27 09:34:16;;;;;;;4.40;2.90;;;29.20;60.90;;;;;;4991346;28;20438;-68
2022/06/27 09:36:46;;;;;;;3.00;1.97;;;29.30;61.20;;;;;;4991082;28;20450;-68
2022/06/27 09:39:28;;;;;;;6.23;2.90;;;29.40;61.20;;;;;;4990738;28;20487;-72
2022/06/27 09:41:58;;;;;;;5.17;2.73;;;29.50;59.60;;;;;;4991222;28;20461;-68
2022/06/27 09:44:28;;;;;;;7.10;2.10;;;29.60;59.40;;;;;;4990838;28;20439;-68
2022/06/27 09:47:05;;;;;;;7.30;2.13;;;29.70;59.10;;;;;;4991055;28;20483;-69
2022/06/27 09:49:34;;;;;;;3.40;2.27;;;29.80;58.70;;;;;;4990375;28;20447;-68
2022/06/27 09:52:05;;;;;;;5.13;2.50;;;29.90;59.00;;;;;;4982081;28;20524;-68
2022/06/27 09:54:34;;;;;;;10.70;2.63;;;29.90;57.70;;;;;;4989741;28;20439;-68
2022/06/27 09:57:02;;;;;;;4.53;2.40;;;30.10;57.20;;;;;;4997362;28;20913;-67
2022/06/27 09:59:31;;;;;;;4.10;2.53;;;30.20;56.40;;;;;;4994691;28;20479;-68
2022/06/27 10:01:58;;;;;;;5.10;2.70;;;30.20;55.00;;;;;;5001188;28;20886;-68
2022/06/27 10:04:28;;;;;;;3.70;1.87;;;30.20;55.70;;;;;;4990372;28;20447;-70
2022/06/27 10:06:58;;;;;;;5.40;1.90;;;30.40;57.30;;;;;;4990800;28;20926;-69
2022/06/27 10:09:29;;;;;;;3.27;2.07;;;30.50;56.10;;;;;;4993114;28;20506;-69
2022/06/27 10:12:22;;;;;;;3.50;2.10;;;30.60;56.80;;;;;;4987018;28;20439;-68
2022/06/27 10:15:20;;;;;;;3.47;2.07;;;30.70;55.10;;;;;;4988447;28;20447;-70
2022/06/27 10:17:53;;;;;;;3.40;1.90;;;30.80;55.60;;;;;;4994706;28;20541;-68
2022/06/27 10:20:30;;;;;;;5.90;2.53;;;30.80;54.70;;;;;;4998247;28;20495;-69
2022/06/27 10:23:28;;;;;;;3.13;1.80;;;30.80;55.90;;;;;;4993650;28;20450;-68
2022/06/27 10:25:58;;;;;;;5.10;1.90;;;30.90;55.90;;;;;;4990316;28;21008;-68
2022/06/27 10:28:26;;;;;;;4.70;1.87;;;31.00;55.40;;;;;;4987715;28;20794;-69
2022/06/27 10:30:55;;;;;;;3.17;1.80;;;31.00;55.70;;;;;;4990597;28;20986;-68
2022/06/27 10:33:41;;;;;;;3.30;2.30;;;31.00;55.70;;;;;;4996272;28;20507;-69
2022/06/27 10:36:16;;;;;;;9.80;2.53;;;31.00;55.80;;;;;;4989594;28;20933;-68
2022/06/27 10:38:57;;;;;;;4.53;2.83;;;31.00;55.50;;;;;;4990299;28;20569;-68
2022/06/27 10:41:41;;;;;;;3.70;2.70;;;31.10;56.30;;;;;;4995627;28;20506;-68
2022/06/27 10:44:32;;;;;;;9.00;2.30;;;31.10;55.00;;;;;;4993981;28;20861;-68
2022/06/27 10:47:34;;;;;;;3.90;2.07;;;31.10;55.20;;;;;;4990176;28;20850;-68
2022/06/27 10:50:14;;;;;;;7.00;2.67;;;31.10;55.20;;;;;;4994786;28;20475;-69
2022/06/27 10:52:44;;;;;;;3.43;2.40;;;31.20;55.00;;;;;;4991687;28;20443;-68
2022/06/27 10:55:24;;;;;;;3.60;2.30;;;31.20;54.50;;;;;;4992688;28;20443;-67
2022/06/27 10:57:54;;;;;;;4.47;2.20;;;31.20;54.50;;;;;;4989585;28;20463;-66
2022/06/27 11:00:39;;;;;;;3.33;1.87;;;31.20;54.50;;;;;;4989632;28;20515;-66
2022/06/27 11:03:08;;;;;;;3.30;1.87;;;31.10;54.40;;;;;;4989490;28;21048;-66
2022/06/27 11:06:04;;;;;;;3.20;1.93;;;31.20;54.40;;;;;;4990176;28;20443;-68
2022/06/27 11:08:34;;;;;;;5.70;2.30;;;31.10;54.70;;;;;;4989845;28;20451;-69
2022/06/27 11:11:02;;;;;;;5.23;1.80;;;31.20;54.00;;;;;;4987241;28;20807;-68
2022/06/27 11:13:45;;;;;;;5.40;2.00;;;31.10;53.80;;;;;;4990222;28;20451;-68
2022/06/27 11:16:16;;;;;;;6.40;2.63;;;31.10;54.90;;;;;;4991991;28;20450;-68
2022/06/27 11:18:46;;;;;;;4.77;2.07;;;31.10;54.20;;;;;;4993309;28;20447;-68
2022/06/27 11:21:14;;;;;;;3.30;2.20;;;31.10;53.80;;;;;;4985935;28;21208;-69
2022/06/27 11:23:54;;;;;;;6.20;2.07;;;31.10;53.80;;;;;;4987139;28;20431;-68
2022/06/27 11:26:22;;;;;;;3.77;2.40;;;31.20;53.50;;;;;;4989061;28;20448;-68
2022/06/27 11:34:19;;;;;;;3.40;2.40;;;31.20;52.70;;;;;;4992513;28;20531;-68
2022/06/27 11:36:47;;;;;;;3.27;2.50;;;31.10;52.10;;;;;;4993012;28;20538;-69
2022/06/27 11:39:16;;;;;;;2.80;1.80;;;31.20;52.20;;;;;;4989576;28;20451;-68
2022/06/27 11:41:43;;;;;;;7.40;2.50;;;31.10;52.20;;;;;;4989557;28;20444;-68
2022/06/27 11:44:12;;;;;;;6.23;2.13;;;31.10;52.20;;;;;;4991026;28;20494;-68
2022/06/27 11:46:45;;;;;;;4.40;2.10;;;31.10;52.20;;;;;;4990740;28;20823;-68
2022/06/27 11:49:14;;;;;;;6.83;2.23;;;31.10;52.60;;;;;;4990417;28;20479;-68
2022/06/27 11:51:44;;;;;;;4.40;2.33;;;31.10;53.10;;;;;;4989027;28;20443;-67
2022/06/27 11:54:16;;;;;;;3.30;2.20;;;31.00;52.80;;;;;;4989131;28;20993;-68
2022/06/27 11:56:47;;;;;;;4.03;2.07;;;31.10;52.40;;;;;;4988578;28;20442;-68
2022/06/27 11:59:16;;;;;;;4.47;2.40;;;31.10;52.90;;;;;;4989967;28;20436;-69
2022/06/27 12:01:55;;;;;;;2.80;1.90;;;31.10;53.40;;;;;;4990098;28;20522;-68
2022/06/27 12:04:27;;;;;;;8.70;2.33;;;31.10;52.60;;;;;;4989034;28;20517;-69
2022/06/27 12:06:56;;;;;;;4.10;2.37;;;31.10;52.50;;;;;;4989783;28;20450;-68
2022/06/27 12:09:27;;;;;;;3.70;2.10;;;31.10;52.10;;;;;;4990055;28;20447;-68
2022/06/27 12:11:59;;;;;;;4.43;1.77;;;31.10;51.80;;;;;;4988713;28;20434;-68
2022/06/27 12:14:27;;;;;;;5.00;2.37;;;31.10;52.00;;;;;;4989222;28;20848;-68
2022/06/27 12:16:57;;;;;;;3.23;2.00;;;31.10;52.70;;;;;;4989537;28;20451;-68
2022/06/27 12:19:25;;;;;;;3.80;2.20;;;31.20;53.10;;;;;;4989630;28;20519;-68
2022/06/27 12:21:52;;;;;;;3.90;2.50;;;31.20;53.30;;;;;;4990967;28;20457;-69
2022/06/27 12:24:20;;;;;;;2.90;2.20;;;31.20;53.50;;;;;;4986598;28;20534;-68
2022/06/27 12:26:47;;;;;;;3.23;2.00;;;31.20;53.20;;;;;;4994167;28;20538;-68
2022/06/27 12:29:17;;;;;;;3.57;1.93;;;31.30;53.30;;;;;;4986674;28;20989;-68
2022/06/27 12:31:44;;;;;;;3.90;2.10;;;31.40;52.40;;;;;;4997924;28;20442;-68
2022/06/27 12:34:11;;;;;;;3.43;2.17;;;31.50;52.20;;;;;;4992714;28;20441;-68
2022/06/27 12:36:38;;;;;;;5.17;2.40;;;31.50;51.90;;;;;;4992061;28;20452;-68
2022/06/27 12:39:07;;;;;;;5.50;2.00;;;31.60;51.70;;;;;;4996850;28;20471;-70
2022/06/27 12:41:35;;;;;;;4.43;2.07;;;31.60;52.10;;;;;;4992643;28;20490;-72
2022/06/27 12:44:02;;;;;;;4.50;2.10;;;31.60;52.00;;;;;;4992800;28;20455;-68
2022/06/27 12:46:31;;;;;;;3.07;1.80;;;31.60;51.30;;;;;;4993546;28;20491;-68
2022/06/27 12:48:59;;;;;;;4.00;2.07;;;31.60;51.40;;;;;;4997021;28;20473;-69
2022/06/27 12:51:27;;;;;;;2.97;2.10;;;31.70;50.90;;;;;;4997322;28;20874;-68
2022/06/27 12:53:55;;;;;;;8.73;2.20;;;31.80;50.70;;;;;;4997521;28;20809;-69
2022/06/27 12:56:25;;;;;;;6.03;2.23;;;31.80;50.20;;;;;;4996306;28;20453;-68
2022/06/27 12:58:52;;;;;;;4.10;2.03;;;31.90;49.70;;;;;;4991527;28;20546;-68
2022/06/27 13:01:19;;;;;;;5.40;2.13;;;31.90;49.60;;;;;;4993637;28;20491;-68
2022/06/27 13:03:48;;;;;;;3.60;2.17;;;31.80;49.70;;;;;;4994425;28;20539;-67
2022/06/27 13:06:15;;;;;;;3.53;1.80;;;31.80;49.70;;;;;;4992154;28;20880;-67
2022/06/27 13:08:42;;;;;;;4.70;1.90;;;31.90;49.90;;;;;;4991907;28;20934;-67